createdAt,value
2018-01-06T00:00:06.938Z,4.9
2018-01-06T00:01:09.428Z,4.8
2018-01-06T00:02:11.924Z,4.9
2018-01-06T00:03:14.421Z,4.8
2018-01-06T00:04:16.929Z,4.9
2018-01-06T00:05:19.407Z,4.8
2018-01-06T00:06:22.513Z,5
2018-01-06T00:07:25.026Z,4.9
2018-01-06T00:08:27.515Z,5
2018-01-06T00:09:30.014Z,4.9
2018-01-06T00:10:32.790Z,4.9
2018-01-06T00:11:35.286Z,4.9
2018-01-06T00:12:37.796Z,4.9
2018-01-06T00:13:40.286Z,5
2018-01-06T00:14:42.776Z,4.9
2018-01-06T00:15:45.273Z,4.9
2018-01-06T00:16:48.066Z,5
2018-01-06T00:17:50.569Z,5
2018-01-06T00:18:53.365Z,4.9
2018-01-06T00:19:55.850Z,5
2018-01-06T00:20:58.647Z,4.9
2018-01-06T00:22:01.144Z,4.9
2018-01-06T00:23:03.635Z,4.9
2018-01-06T00:24:06.424Z,5
2018-01-06T00:25:08.917Z,5
2018-01-06T00:26:11.408Z,4.9
2018-01-06T00:27:13.909Z,4.8
2018-01-06T00:28:16.400Z,4.9
2018-01-06T00:29:18.902Z,4.9
2018-01-06T00:30:21.677Z,5
2018-01-06T00:31:24.477Z,5
2018-01-06T00:32:26.974Z,5
2018-01-06T00:33:29.758Z,4.9
2018-01-06T00:34:32.543Z,5
2018-01-06T00:35:35.333Z,5.1
2018-01-06T00:36:37.824Z,5
2018-01-06T00:37:40.330Z,5
2018-01-06T00:38:42.808Z,4.9
2018-01-06T00:39:45.304Z,4.9
2018-01-06T00:40:47.816Z,4.9
2018-01-06T00:41:50.297Z,4.9
2018-01-06T00:42:52.788Z,4.9
2018-01-06T00:43:55.286Z,5
2018-01-06T00:44:57.779Z,5
2018-01-06T00:46:00.286Z,4.9
2018-01-06T00:47:02.788Z,5
2018-01-06T00:48:05.263Z,4.9
2018-01-06T00:49:07.769Z,4.9
2018-01-06T00:50:10.256Z,4.9
2018-01-06T00:51:12.738Z,4.9
2018-01-06T00:52:15.228Z,4.9
2018-01-06T00:53:17.736Z,4.9
2018-01-06T00:54:20.292Z,5
2018-01-06T00:55:23.065Z,4.9
2018-01-06T00:56:25.568Z,5
2018-01-06T00:57:28.069Z,5
2018-01-06T00:58:30.577Z,5
2018-01-06T00:59:33.365Z,4.9
2018-01-06T01:00:35.853Z,4.9
2018-01-06T01:01:38.346Z,4.9
2018-01-06T01:02:40.852Z,4.9
2018-01-06T01:03:43.344Z,4.9
2018-01-06T01:04:45.836Z,5
2018-01-06T01:05:48.336Z,5
2018-01-06T01:06:50.825Z,5
2018-01-06T01:07:53.320Z,4.8
2018-01-06T01:08:55.811Z,5
2018-01-06T01:09:58.304Z,4.9
2018-01-06T01:11:00.801Z,4.9
2018-01-06T01:12:03.294Z,5
2018-01-06T01:13:05.780Z,4.9
2018-01-06T01:14:08.293Z,4.9
2018-01-06T01:15:10.785Z,4.9
2018-01-06T01:16:13.283Z,4.8
2018-01-06T01:17:16.064Z,5.1
2018-01-06T01:18:18.570Z,4.9
2018-01-06T01:19:21.044Z,4.9
2018-01-06T01:20:23.541Z,4.9
2018-01-06T01:21:26.044Z,4.9
2018-01-06T01:22:28.537Z,4.9
2018-01-06T01:23:31.034Z,5
2018-01-06T01:24:33.523Z,5
2018-01-06T01:25:36.015Z,4.9
2018-01-06T01:26:38.523Z,4.9
2018-01-06T01:27:41.023Z,4.9
2018-01-06T01:28:43.500Z,4.8
2018-01-06T01:29:46.001Z,4.9
2018-01-06T01:30:48.502Z,4.9
2018-01-06T01:31:51.284Z,4.9
2018-01-06T01:32:53.784Z,5
2018-01-06T01:33:56.273Z,5
2018-01-06T01:34:58.765Z,4.9
2018-01-06T01:36:01.559Z,4.9
2018-01-06T01:37:04.053Z,5
2018-01-06T01:38:06.546Z,4.9
2018-01-06T01:39:09.048Z,4.9
2018-01-06T01:40:11.549Z,4.8
2018-01-06T01:41:14.041Z,4.9
2018-01-06T01:42:16.537Z,5.2
2018-01-06T01:43:19.035Z,5
2018-01-06T01:44:21.523Z,5
2018-01-06T01:45:24.027Z,5
2018-01-06T01:46:26.803Z,4.9
2018-01-06T01:47:29.297Z,5
2018-01-06T01:48:31.791Z,4.9
2018-01-06T01:49:34.580Z,4.8
2018-01-06T01:50:37.064Z,4.9
2018-01-06T01:51:39.567Z,4.8
2018-01-06T01:52:42.070Z,4.9
2018-01-06T01:53:44.857Z,4.9
2018-01-06T01:54:47.334Z,4.9
2018-01-06T01:55:49.833Z,5
2018-01-06T01:56:52.613Z,5
2018-01-06T01:57:55.113Z,5
2018-01-06T01:58:57.605Z,4.9
2018-01-06T02:00:00.104Z,4.9
2018-01-06T02:01:02.891Z,4.9
2018-01-06T02:02:05.457Z,4.8
2018-01-06T02:03:07.945Z,4.9
2018-01-06T02:04:10.450Z,4.9
2018-01-06T02:05:12.940Z,4.9
2018-01-06T02:06:15.428Z,5.1
2018-01-06T02:07:17.928Z,4.9
2018-01-06T02:08:20.419Z,4.9
2018-01-06T02:09:22.905Z,5
2018-01-06T02:10:26.022Z,5
2018-01-06T02:11:28.495Z,4.8
2018-01-06T02:12:30.991Z,4.9
2018-01-06T02:13:33.494Z,5
2018-01-06T02:14:35.988Z,4.9
2018-01-06T02:15:38.479Z,4.9
2018-01-06T02:16:40.978Z,4.9
2018-01-06T02:17:43.767Z,4.9
2018-01-06T02:18:46.247Z,5
2018-01-06T02:19:48.747Z,5
2018-01-06T02:20:51.259Z,5
2018-01-06T02:21:53.747Z,5
2018-01-06T02:22:56.244Z,4.9
2018-01-06T02:23:58.733Z,5
2018-01-06T02:25:01.229Z,5
2018-01-06T02:26:03.733Z,4.8
2018-01-06T02:27:06.228Z,4.9
2018-01-06T02:28:08.707Z,4.9
2018-01-06T02:29:11.204Z,5.1
2018-01-06T02:30:14.021Z,4.9
2018-01-06T02:31:16.809Z,4.9
2018-01-06T02:32:19.609Z,4.9
2018-01-06T02:33:22.090Z,4.9
2018-01-06T02:34:24.577Z,4.9
2018-01-06T02:35:27.085Z,5
2018-01-06T02:36:29.579Z,5
2018-01-06T02:37:32.056Z,4.9
2018-01-06T02:38:34.846Z,4.8
2018-01-06T02:39:37.340Z,4.9
2018-01-06T02:40:40.139Z,4.8
2018-01-06T02:41:42.636Z,4.9
2018-01-06T02:42:45.424Z,5
2018-01-06T02:43:47.898Z,4.9
2018-01-06T02:44:50.408Z,5
2018-01-06T02:45:53.196Z,4.9
2018-01-06T02:46:55.696Z,5
2018-01-06T02:47:58.189Z,4.8
2018-01-06T02:49:00.688Z,4.9
2018-01-06T02:50:03.475Z,4.9
2018-01-06T02:51:05.965Z,4.9
2018-01-06T02:52:08.464Z,4.8
2018-01-06T02:53:10.969Z,4.8
2018-01-06T02:54:13.448Z,4.8
2018-01-06T02:55:15.950Z,4.8
2018-01-06T02:56:18.737Z,4.9
2018-01-06T02:57:21.245Z,4.9
2018-01-06T02:58:24.023Z,5.2
2018-01-06T02:59:26.522Z,4.9
2018-01-06T03:00:29.298Z,4.9
2018-01-06T03:01:31.794Z,4.9
2018-01-06T03:02:34.567Z,4.8
2018-01-06T03:03:37.066Z,4.9
2018-01-06T03:04:39.556Z,4.8
2018-01-06T03:05:42.058Z,4.8
2018-01-06T03:06:44.554Z,4.8
2018-01-06T03:07:47.058Z,4.8
2018-01-06T03:08:49.535Z,4.8
2018-01-06T03:09:52.038Z,5
2018-01-06T03:10:54.535Z,4.9
2018-01-06T03:11:57.315Z,5.1
2018-01-06T03:12:59.808Z,5
2018-01-06T03:14:02.318Z,4.8
2018-01-06T03:15:04.799Z,4.8
2018-01-06T03:16:07.919Z,4.9
2018-01-06T03:17:10.413Z,4.8
2018-01-06T03:18:12.888Z,4.8
2018-01-06T03:19:15.709Z,4.8
2018-01-06T03:20:18.197Z,4.9
2018-01-06T03:21:20.978Z,5
2018-01-06T03:22:23.470Z,4.9
2018-01-06T03:23:25.966Z,4.9
2018-01-06T03:24:28.451Z,4.9
2018-01-06T03:25:30.956Z,4.9
2018-01-06T03:26:33.448Z,4.9
2018-01-06T03:27:35.947Z,4.8
2018-01-06T03:28:38.732Z,4.8
2018-01-06T03:29:41.231Z,4.8
2018-01-06T03:30:43.722Z,4.8
2018-01-06T03:31:46.499Z,4.9
2018-01-06T03:32:48.980Z,5
2018-01-06T03:33:51.485Z,4.8
2018-01-06T03:34:53.976Z,4.9
2018-01-06T03:35:56.475Z,5
2018-01-06T03:36:59.533Z,4.9
2018-01-06T03:38:02.026Z,4.9
2018-01-06T03:39:04.516Z,4.9
2018-01-06T03:40:07.025Z,4.9
2018-01-06T03:41:09.849Z,4.8
2018-01-06T03:42:12.343Z,4.8
2018-01-06T03:43:14.839Z,4.8
2018-01-06T03:44:17.331Z,4.8
2018-01-06T03:45:19.831Z,4.8
2018-01-06T03:46:22.329Z,4.9
2018-01-06T03:47:25.107Z,5.1
2018-01-06T03:48:27.604Z,4.9
2018-01-06T03:49:30.390Z,4.9
2018-01-06T03:50:32.878Z,4.9
2018-01-06T03:51:35.684Z,4.8
2018-01-06T03:52:38.171Z,4.9
2018-01-06T03:53:40.656Z,5
2018-01-06T03:54:43.149Z,4.9
2018-01-06T03:55:45.647Z,4.9
2018-01-06T03:56:48.132Z,4.8
2018-01-06T03:57:50.635Z,4.9
2018-01-06T03:58:53.406Z,4.9
2018-01-06T03:59:56.198Z,4.9
2018-01-06T04:00:59.292Z,5
2018-01-06T04:02:02.080Z,5
2018-01-06T04:03:04.873Z,4.9
2018-01-06T04:04:07.358Z,4.8
2018-01-06T04:05:09.860Z,4.8
2018-01-06T04:06:12.941Z,4.8
2018-01-06T04:07:15.436Z,5
2018-01-06T04:08:17.916Z,4.9
2018-01-06T04:09:20.406Z,4.8
2018-01-06T04:10:22.907Z,4.8
2018-01-06T04:11:25.688Z,4.9
2018-01-06T04:12:28.194Z,4.8
2018-01-06T04:13:30.664Z,4.8
2018-01-06T04:14:33.157Z,4.8
2018-01-06T04:15:35.666Z,4.7
2018-01-06T04:16:38.146Z,4.9
2018-01-06T04:17:40.650Z,4.8
2018-01-06T04:18:43.143Z,4.8
2018-01-06T04:19:45.914Z,5.1
2018-01-06T04:20:48.412Z,4.8
2018-01-06T04:21:50.904Z,4.8
2018-01-06T04:22:53.681Z,4.8
2018-01-06T04:23:56.192Z,4.8
2018-01-06T04:24:58.664Z,4.8
2018-01-06T04:26:01.165Z,4.8
2018-01-06T04:27:03.665Z,4.7
2018-01-06T04:28:06.159Z,4.9
2018-01-06T04:29:08.957Z,4.9
2018-01-06T04:30:11.746Z,4.8
2018-01-06T04:31:14.226Z,4.9
2018-01-06T04:32:16.735Z,4.9
2018-01-06T04:33:19.221Z,4.9
2018-01-06T04:34:21.716Z,4.9
2018-01-06T04:35:24.208Z,4.8
2018-01-06T04:36:26.697Z,4.8
2018-01-06T04:37:29.189Z,4.8
2018-01-06T04:38:31.686Z,4.8
2018-01-06T04:39:34.166Z,4.9
2018-01-06T04:40:36.662Z,4.9
2018-01-06T04:41:39.156Z,4.8
2018-01-06T04:42:41.652Z,4.9
2018-01-06T04:43:44.426Z,4.8
2018-01-06T04:44:46.911Z,4.9
2018-01-06T04:45:49.401Z,4.8
2018-01-06T04:46:51.893Z,4.7
2018-01-06T04:47:54.379Z,4.7
2018-01-06T04:48:56.889Z,4.8
2018-01-06T04:49:59.373Z,4.8
2018-01-06T04:51:02.163Z,4.9
2018-01-06T04:52:04.659Z,4.9
2018-01-06T04:53:07.157Z,4.9
2018-01-06T04:54:09.642Z,4.8
2018-01-06T04:55:12.143Z,4.8
2018-01-06T04:56:14.628Z,4.8
2018-01-06T04:57:17.127Z,4.7
2018-01-06T04:58:19.924Z,4.8
2018-01-06T04:59:22.403Z,4.8
2018-01-06T05:00:24.900Z,4.8
2018-01-06T05:01:27.391Z,4.7
2018-01-06T05:02:29.880Z,4.8
2018-01-06T05:03:32.384Z,5
2018-01-06T05:04:35.171Z,4.7
2018-01-06T05:05:37.648Z,4.8
2018-01-06T05:06:40.146Z,4.9
2018-01-06T05:07:42.642Z,4.9
2018-01-06T05:08:45.136Z,4.8
2018-01-06T05:09:47.823Z,4.8
2018-01-06T05:10:50.401Z,4.7
2018-01-06T05:11:53.186Z,4.8
2018-01-06T05:12:55.688Z,4.8
2018-01-06T05:13:58.524Z,4.8
2018-01-06T05:15:01.056Z,4.9
2018-01-06T05:16:03.544Z,4.9
2018-01-06T05:17:06.329Z,5.1
2018-01-06T05:18:09.105Z,4.9
2018-01-06T05:19:11.598Z,4.9
2018-01-06T05:20:14.091Z,4.8
2018-01-06T05:21:16.589Z,4.9
2018-01-06T05:22:19.074Z,4.8
2018-01-06T05:23:21.569Z,4.8
2018-01-06T05:24:24.276Z,4.8
2018-01-06T05:25:26.759Z,4.8
2018-01-06T05:26:29.251Z,4.8
2018-01-06T05:27:31.750Z,4.8
2018-01-06T05:28:34.238Z,4.9
2018-01-06T05:29:37.025Z,4.8
2018-01-06T05:30:39.819Z,4.9
2018-01-06T05:31:42.323Z,4.9
2018-01-06T05:32:44.813Z,5
2018-01-06T05:33:47.613Z,4.8
2018-01-06T05:34:50.106Z,4.8
2018-01-06T05:35:52.603Z,4.8
2018-01-06T05:36:55.084Z,4.8
2018-01-06T05:37:57.588Z,4.8
2018-01-06T05:39:00.086Z,4.8
2018-01-06T05:40:02.580Z,4.8
2018-01-06T05:41:05.074Z,5
2018-01-06T05:42:07.905Z,4.8
2018-01-06T05:43:10.395Z,4.9
2018-01-06T05:44:13.185Z,4.9
2018-01-06T05:45:15.674Z,4.9
2018-01-06T05:46:18.158Z,4.9
2018-01-06T05:47:20.657Z,4.9
2018-01-06T05:48:23.144Z,5
2018-01-06T05:49:25.935Z,4.9
2018-01-06T05:50:28.712Z,4.8
2018-01-06T05:51:31.208Z,4.8
2018-01-06T05:52:33.700Z,4.8
2018-01-06T05:53:36.195Z,4.9
2018-01-06T05:54:38.698Z,4.9
2018-01-06T05:55:41.198Z,5
2018-01-06T05:56:43.685Z,5.2
2018-01-06T05:57:46.193Z,5
2018-01-06T05:58:48.678Z,4.8
2018-01-06T05:59:51.174Z,4.9
2018-01-06T06:00:53.948Z,4.9
2018-01-06T06:01:56.441Z,4.8
2018-01-06T06:02:58.943Z,4.8
2018-01-06T06:04:01.445Z,4.8
2018-01-06T06:05:03.931Z,4.9
2018-01-06T06:06:06.429Z,4.9
2018-01-06T06:07:08.918Z,4.9
2018-01-06T06:08:11.411Z,4.9
2018-01-06T06:09:13.912Z,4.9
2018-01-06T06:10:17.084Z,4.9
2018-01-06T06:11:19.566Z,5
2018-01-06T06:12:22.073Z,4.8
2018-01-06T06:13:24.849Z,4.8
2018-01-06T06:14:27.342Z,4.8
2018-01-06T06:15:29.841Z,4.9
2018-01-06T06:16:32.338Z,4.9
2018-01-06T06:17:34.825Z,5.1
2018-01-06T06:18:37.317Z,4.9
2018-01-06T06:19:39.823Z,4.8
2018-01-06T06:20:42.315Z,4.9
2018-01-06T06:21:44.802Z,4.9
2018-01-06T06:22:47.296Z,5.1
2018-01-06T06:23:49.794Z,4.8
2018-01-06T06:24:52.286Z,4.8
2018-01-06T06:25:54.787Z,4.8
2018-01-06T06:26:57.260Z,4.8
2018-01-06T06:27:59.753Z,4.9
2018-01-06T06:29:02.263Z,4.9
2018-01-06T06:30:05.329Z,4.9
2018-01-06T06:31:07.839Z,4.9
2018-01-06T06:32:10.325Z,5
2018-01-06T06:33:12.819Z,4.9
2018-01-06T06:34:15.302Z,4.9
2018-01-06T06:35:17.799Z,4.8
2018-01-06T06:36:20.286Z,4.8
2018-01-06T06:37:22.782Z,4.8
2018-01-06T06:38:25.266Z,4.9
2018-01-06T06:39:27.761Z,4.9
2018-01-06T06:40:30.258Z,4.9
2018-01-06T06:42:35.308Z,4.9
2018-01-06T06:43:37.801Z,4.9
2018-01-06T06:44:40.868Z,4.8
2018-01-06T06:45:43.362Z,4.9
2018-01-06T06:46:45.845Z,4.9
2018-01-06T06:47:48.339Z,5
2018-01-06T06:48:50.826Z,4.8
2018-01-06T06:49:53.312Z,4.9
2018-01-06T06:50:55.814Z,5
2018-01-06T06:51:58.296Z,4.9
2018-01-06T06:53:00.790Z,4.9
2018-01-06T06:54:03.297Z,4.9
2018-01-06T06:55:05.786Z,4.8
2018-01-06T06:56:08.285Z,4.8
2018-01-06T06:57:10.777Z,4.9
2018-01-06T06:58:13.268Z,4.9
2018-01-06T06:59:15.761Z,4.8
2018-01-06T07:00:18.254Z,4.9
2018-01-06T07:01:20.743Z,4.8
2018-01-06T07:02:23.542Z,4.8
2018-01-06T07:03:26.321Z,4.9
2018-01-06T07:04:28.798Z,4.9
2018-01-06T07:05:31.298Z,5
2018-01-06T07:06:34.075Z,4.8
2018-01-06T07:07:36.571Z,4.8
2018-01-06T07:08:39.067Z,4.8
2018-01-06T07:09:41.548Z,4.9
2018-01-06T07:10:44.047Z,4.8
2018-01-06T07:11:46.847Z,4.8
2018-01-06T07:12:49.338Z,4.9
2018-01-06T07:13:51.826Z,4.8
2018-01-06T07:14:54.320Z,4.9
2018-01-06T07:15:56.822Z,4.9
2018-01-06T07:16:59.303Z,5
2018-01-06T07:18:01.797Z,4.8
2018-01-06T07:19:04.301Z,4.9
2018-01-06T07:20:06.785Z,4.9
2018-01-06T07:21:09.282Z,4.8
2018-01-06T07:22:11.782Z,4.8
2018-01-06T07:23:14.273Z,4.8
2018-01-06T07:24:17.063Z,4.8
2018-01-06T07:25:19.558Z,4.9
2018-01-06T07:26:22.029Z,4.9
2018-01-06T07:27:24.533Z,4.9
2018-01-06T07:28:27.031Z,4.9
2018-01-06T07:29:29.517Z,4.9
2018-01-06T07:30:32.026Z,5
2018-01-06T07:31:34.519Z,4.8
2018-01-06T07:32:37.009Z,4.9
2018-01-06T07:33:39.505Z,4.9
2018-01-06T07:34:42.296Z,4.9
2018-01-06T07:35:45.078Z,4.9
2018-01-06T07:36:47.582Z,4.9
2018-01-06T07:37:50.062Z,4.9
2018-01-06T07:38:52.557Z,5
2018-01-06T07:39:55.347Z,4.9
2018-01-06T07:40:57.832Z,5
2018-01-06T07:42:00.326Z,4.9
2018-01-06T07:43:02.813Z,4.9
2018-01-06T07:44:05.317Z,4.9
2018-01-06T07:45:07.797Z,4.8
2018-01-06T07:46:10.291Z,4.9
2018-01-06T07:47:12.788Z,4.9
2018-01-06T07:48:15.280Z,4.8
2018-01-06T07:49:17.770Z,4.9
2018-01-06T07:50:20.270Z,5
2018-01-06T07:51:22.755Z,5
2018-01-06T07:52:25.265Z,4.9
2018-01-06T07:53:27.758Z,4.8
2018-01-06T07:54:30.258Z,4.9
2018-01-06T07:55:32.744Z,4.8
2018-01-06T07:56:35.241Z,4.9
2018-01-06T07:57:37.738Z,5
2018-01-06T07:58:40.246Z,4.9
2018-01-06T07:59:42.735Z,4.9
2018-01-06T08:00:45.223Z,4.9
2018-01-06T08:01:47.743Z,4.8
2018-01-06T08:02:50.220Z,4.9
2018-01-06T08:03:52.723Z,4.8
2018-01-06T08:04:55.511Z,4.9
2018-01-06T08:05:58.004Z,4.9
2018-01-06T08:07:00.500Z,4.9
2018-01-06T08:08:03.287Z,5
2018-01-06T08:09:05.770Z,5
2018-01-06T08:10:08.270Z,5.1
2018-01-06T08:11:10.761Z,4.9
2018-01-06T08:12:13.262Z,4.8
2018-01-06T08:13:15.752Z,5
2018-01-06T08:14:18.542Z,4.9
2018-01-06T08:15:21.023Z,4.9
2018-01-06T08:16:23.542Z,4.8
2018-01-06T08:17:26.035Z,4.8
2018-01-06T08:18:28.525Z,4.8
2018-01-06T08:19:31.026Z,4.9
2018-01-06T08:20:33.528Z,4.9
2018-01-06T08:21:36.024Z,5
2018-01-06T08:22:38.518Z,4.9
2018-01-06T08:23:41.286Z,4.9
2018-01-06T08:24:43.792Z,5.1
2018-01-06T08:25:46.592Z,4.8
2018-01-06T08:26:49.125Z,5
2018-01-06T08:27:51.570Z,4.8
2018-01-06T08:28:54.654Z,4.8
2018-01-06T08:29:57.343Z,4.9
2018-01-06T08:31:00.505Z,4.8
2018-01-06T08:32:02.988Z,4.9
2018-01-06T08:33:05.510Z,4.9
2018-01-06T08:34:07.977Z,4.9
2018-01-06T08:35:10.484Z,4.9
2018-01-06T08:36:13.262Z,4.8
2018-01-06T08:37:16.328Z,5
2018-01-06T08:38:18.830Z,5
2018-01-06T08:39:21.384Z,4.9
2018-01-06T08:40:23.883Z,5
2018-01-06T08:41:26.384Z,4.9
2018-01-06T08:42:28.864Z,4.8
2018-01-06T08:43:31.367Z,4.9
2018-01-06T08:44:33.868Z,4.9
2018-01-06T08:45:36.366Z,4.9
2018-01-06T08:46:38.863Z,4.9
2018-01-06T08:47:41.365Z,5
2018-01-06T08:48:43.872Z,4.9
2018-01-06T08:49:46.350Z,5.1
2018-01-06T08:50:48.860Z,4.9
2018-01-06T08:51:51.342Z,5
2018-01-06T08:52:53.834Z,4.9
2018-01-06T08:53:56.624Z,4.8
2018-01-06T08:54:59.118Z,4.9
2018-01-06T08:56:01.897Z,4.9
2018-01-06T08:57:04.406Z,4.9
2018-01-06T08:58:07.178Z,4.8
2018-01-06T08:59:09.686Z,4.9
2018-01-06T09:00:12.173Z,4.9
2018-01-06T09:01:14.673Z,4.9
2018-01-06T09:02:17.457Z,4.9
2018-01-06T09:03:20.246Z,4.9
2018-01-06T09:04:23.024Z,5
2018-01-06T09:05:29.343Z,4.9
2018-01-06T09:06:31.830Z,5.2
2018-01-06T09:07:34.618Z,4.9
2018-01-06T09:08:37.121Z,5
2018-01-06T09:09:39.622Z,4.9
2018-01-06T09:10:42.463Z,5
2018-01-06T09:11:45.197Z,4.8
2018-01-06T09:12:47.708Z,5
2018-01-06T09:13:50.188Z,4.9
2018-01-06T09:14:53.021Z,4.9
2018-01-06T09:15:55.531Z,4.9
2018-01-06T09:16:58.019Z,4.9
2018-01-06T09:18:00.580Z,5.1
2018-01-06T09:19:03.078Z,5
2018-01-06T09:20:05.566Z,5
2018-01-06T09:21:08.075Z,5
2018-01-06T09:22:10.563Z,5
2018-01-06T09:23:13.054Z,4.8
2018-01-06T09:24:15.556Z,4.9
2018-01-06T09:25:18.045Z,4.9
2018-01-06T09:26:20.546Z,4.9
2018-01-06T09:27:23.034Z,4.9
2018-01-06T09:28:25.534Z,4.9
2018-01-06T09:29:28.327Z,5
2018-01-06T09:30:30.820Z,4.9
2018-01-06T09:31:33.313Z,4.9
2018-01-06T09:32:35.810Z,5.2
2018-01-06T09:33:38.584Z,4.9
2018-01-06T09:34:41.093Z,5
2018-01-06T09:35:43.579Z,4.8
2018-01-06T09:36:46.084Z,4.9
2018-01-06T09:37:48.582Z,4.9
2018-01-06T09:38:51.075Z,4.9
2018-01-06T09:39:53.572Z,5
2018-01-06T09:40:56.372Z,5
2018-01-06T09:41:58.855Z,5
2018-01-06T09:43:01.363Z,4.9
2018-01-06T09:44:03.853Z,4.9
2018-01-06T09:45:06.353Z,4.9
2018-01-06T09:46:08.910Z,4.9
2018-01-06T09:47:11.637Z,4.9
2018-01-06T09:48:14.425Z,4.9
2018-01-06T09:49:17.184Z,4.9
2018-01-06T09:50:19.683Z,4.9
2018-01-06T09:51:22.179Z,4.9
2018-01-06T09:52:24.695Z,4.9
2018-01-06T09:53:27.249Z,5
2018-01-06T09:54:29.877Z,5
2018-01-06T09:55:32.413Z,5
2018-01-06T09:56:35.551Z,5.1
2018-01-06T09:57:38.061Z,5.1
2018-01-06T09:58:40.589Z,4.9
2018-01-06T09:59:43.082Z,4.9
2018-01-06T10:00:45.606Z,5
2018-01-06T10:01:48.104Z,5
2018-01-06T10:02:50.623Z,4.9
2018-01-06T10:03:53.222Z,4.9
2018-01-06T10:04:55.746Z,5
2018-01-06T10:05:58.247Z,5
2018-01-06T10:07:00.792Z,5.1
2018-01-06T10:08:03.349Z,5
2018-01-06T10:09:05.860Z,5
2018-01-06T10:10:08.383Z,4.9
2018-01-06T10:11:11.162Z,4.9
2018-01-06T10:12:13.661Z,5.1
2018-01-06T10:13:16.150Z,4.9
2018-01-06T10:14:18.639Z,4.9
2018-01-06T10:15:21.156Z,5
2018-01-06T10:16:23.973Z,5
2018-01-06T10:17:26.489Z,5.1
2018-01-06T10:18:28.982Z,5.1
2018-01-06T10:19:31.740Z,5.1
2018-01-06T10:20:34.253Z,4.9
2018-01-06T10:21:36.775Z,5.2
2018-01-06T10:22:39.570Z,4.9
2018-01-06T10:23:42.363Z,5
2018-01-06T10:24:44.864Z,5.1
2018-01-06T10:25:47.359Z,4.9
2018-01-06T10:26:49.859Z,4.9
2018-01-06T10:27:52.370Z,4.9
2018-01-06T10:28:54.881Z,5
2018-01-06T10:29:57.440Z,5
2018-01-06T10:30:59.931Z,5.2
2018-01-06T10:32:02.691Z,5
2018-01-06T10:33:05.462Z,4.9
2018-01-06T10:34:08.273Z,5
2018-01-06T10:35:11.110Z,5
2018-01-06T10:36:13.616Z,4.9
2018-01-06T10:37:16.392Z,5
2018-01-06T10:38:18.901Z,4.9
2018-01-06T10:39:21.705Z,5
2018-01-06T10:40:24.195Z,5.1
2018-01-06T10:41:26.688Z,5
2018-01-06T10:42:29.181Z,5
2018-01-06T10:43:31.677Z,4.9
2018-01-06T10:44:34.174Z,5.1
2018-01-06T10:45:36.954Z,5.1
2018-01-06T10:46:40.051Z,5.1
2018-01-06T10:47:42.836Z,5
2018-01-06T10:48:45.616Z,5
2018-01-06T10:49:48.406Z,5.1
2018-01-06T10:50:50.898Z,5
2018-01-06T10:51:53.686Z,5.1
2018-01-06T10:52:56.470Z,5
2018-01-06T10:53:59.269Z,5.1
2018-01-06T10:55:01.765Z,5
2018-01-06T10:56:04.260Z,5
2018-01-06T10:57:07.043Z,4.9
2018-01-06T10:58:09.541Z,4.9
2018-01-06T10:59:12.031Z,5
2018-01-06T11:00:14.813Z,5
2018-01-06T11:01:17.607Z,4.9
2018-01-06T11:02:20.089Z,5
2018-01-06T11:03:22.593Z,5
2018-01-06T11:04:25.090Z,5.2
2018-01-06T11:05:27.873Z,5.1
2018-01-06T11:06:30.400Z,5.2
2018-01-06T11:07:32.887Z,5
2018-01-06T11:08:35.384Z,5
2018-01-06T11:09:37.887Z,5
2018-01-06T11:10:40.381Z,5.2
2018-01-06T11:11:42.874Z,5
2018-01-06T11:12:45.368Z,5
2018-01-06T11:13:47.856Z,5
2018-01-06T11:14:50.368Z,5.1
2018-01-06T11:15:52.856Z,5
2018-01-06T11:16:55.356Z,5.1
2018-01-06T11:17:57.848Z,5.1
2018-01-06T11:19:00.647Z,5
2018-01-06T11:20:03.417Z,5.1
2018-01-06T11:21:05.917Z,4.9
2018-01-06T11:22:08.405Z,5
2018-01-06T11:23:11.186Z,5
2018-01-06T11:24:13.689Z,4.9
2018-01-06T11:25:16.180Z,5
2018-01-06T11:26:18.680Z,5
2018-01-06T11:27:21.183Z,5
2018-01-06T11:28:23.666Z,5.1
2018-01-06T11:29:26.176Z,4.9
2018-01-06T11:30:28.677Z,5.1
2018-01-06T11:31:31.170Z,5.1
2018-01-06T11:32:33.669Z,5
2018-01-06T11:33:36.172Z,4.9
2018-01-06T11:34:38.664Z,5
2018-01-06T11:35:41.167Z,5.1
2018-01-06T11:36:43.644Z,5.3
2018-01-06T11:37:46.131Z,5.1
2018-01-06T11:38:48.638Z,5
2018-01-06T11:39:51.126Z,5
2018-01-06T11:40:53.624Z,5
2018-01-06T11:41:56.118Z,5
2018-01-06T11:42:58.901Z,5
2018-01-06T11:44:01.398Z,5.1
2018-01-06T11:45:03.890Z,5
2018-01-06T11:46:06.402Z,5
2018-01-06T11:47:08.927Z,5.3
2018-01-06T11:48:11.380Z,5
2018-01-06T11:49:13.883Z,5.1
2018-01-06T11:50:16.378Z,4.9
2018-01-06T11:51:19.171Z,5
2018-01-06T11:52:21.667Z,4.9
2018-01-06T11:53:24.155Z,5
2018-01-06T11:54:26.651Z,5.1
2018-01-06T11:55:29.156Z,5
2018-01-06T11:56:31.638Z,5.1
2018-01-06T11:57:34.140Z,5
2018-01-06T11:58:36.918Z,5.1
2018-01-06T11:59:39.412Z,5
2018-01-06T12:00:41.924Z,5
2018-01-06T12:01:44.418Z,5
2018-01-06T12:02:46.899Z,5.1
2018-01-06T12:03:49.406Z,5
2018-01-06T12:04:51.901Z,5
2018-01-06T12:05:54.402Z,5.2
2018-01-06T12:06:57.194Z,5.1
2018-01-06T12:07:59.679Z,5
2018-01-06T12:09:02.170Z,5
2018-01-06T12:10:04.688Z,5
2018-01-06T12:11:07.162Z,5.1
2018-01-06T12:12:09.672Z,5.1
2018-01-06T12:13:12.452Z,5
2018-01-06T12:14:14.937Z,5
2018-01-06T12:15:17.438Z,5
2018-01-06T12:16:19.927Z,5.2
2018-01-06T12:17:22.711Z,5.1
2018-01-06T12:18:25.213Z,5.2
2018-01-06T12:19:27.982Z,5.2
2018-01-06T12:20:30.775Z,5
2018-01-06T12:21:33.285Z,5.1
2018-01-06T12:22:35.773Z,5.1
2018-01-06T12:23:38.271Z,5
2018-01-06T12:24:41.050Z,5
2018-01-06T12:26:15.673Z,5.2
2018-01-06T12:27:18.144Z,5.1
2018-01-06T12:28:20.647Z,4.9
2018-01-06T12:29:23.154Z,5
2018-01-06T12:30:25.648Z,5
2018-01-06T12:31:28.438Z,4.9
2018-01-06T12:32:30.933Z,5.1
2018-01-06T12:33:33.432Z,5
2018-01-06T12:34:35.930Z,5
2018-01-06T12:35:38.435Z,5.1
2018-01-06T12:36:40.920Z,5.1
2018-01-06T12:37:43.425Z,5.1
2018-01-06T12:38:45.920Z,5.2
2018-01-06T12:39:48.415Z,5
2018-01-06T12:40:50.903Z,5.1
2018-01-06T12:41:53.406Z,5
2018-01-06T12:42:55.904Z,5
2018-01-06T12:43:58.391Z,5
2018-01-06T12:45:00.896Z,5
2018-01-06T12:46:03.439Z,5.2
2018-01-06T12:47:05.896Z,5
2018-01-06T12:48:08.389Z,5.1
2018-01-06T12:49:10.888Z,5.2
2018-01-06T12:50:13.380Z,5.1
2018-01-06T12:51:15.880Z,5.1
2018-01-06T12:52:18.381Z,5
2018-01-06T12:53:20.859Z,5.1
2018-01-06T12:54:23.404Z,5.2
2018-01-06T12:55:25.910Z,5.1
2018-01-06T12:56:28.412Z,5.1
2018-01-06T12:57:30.913Z,5.1
2018-01-06T12:58:33.400Z,5.2
2018-01-06T12:59:35.899Z,5.1
2018-01-06T13:00:38.701Z,5
2018-01-06T13:01:41.189Z,5
2018-01-06T13:02:43.682Z,5
2018-01-06T13:03:46.504Z,5.1
2018-01-06T13:04:50.003Z,5.2
2018-01-06T13:05:52.504Z,5.1
2018-01-06T13:06:55.010Z,5
2018-01-06T13:07:57.505Z,5.1
2018-01-06T13:09:00.012Z,5.2
2018-01-06T13:10:02.505Z,5.1
2018-01-06T13:11:05.007Z,5.1
2018-01-06T13:12:07.799Z,5.2
2018-01-06T13:13:10.344Z,5.1
2018-01-06T13:14:12.901Z,5.2
2018-01-06T13:15:15.435Z,5
2018-01-06T13:16:17.934Z,5.1
2018-01-06T13:17:20.729Z,5
2018-01-06T13:18:23.212Z,5.2
2018-01-06T13:19:25.721Z,5.1
2018-01-06T13:20:28.510Z,5.1
2018-01-06T13:21:31.283Z,5.1
2018-01-06T13:22:34.071Z,5.1
2018-01-06T13:23:36.572Z,5.2
2018-01-06T13:24:39.069Z,5.1
2018-01-06T13:25:41.568Z,5
2018-01-06T13:26:44.064Z,5
2018-01-06T13:27:46.564Z,5.3
2018-01-06T13:28:49.064Z,5
2018-01-06T13:29:51.564Z,5.1
2018-01-06T13:30:54.060Z,5.2
2018-01-06T13:31:56.568Z,5.2
2018-01-06T13:32:59.061Z,5.2
2018-01-06T13:34:02.134Z,5.1
2018-01-06T13:35:04.642Z,5.1
2018-01-06T13:36:07.127Z,5.2
2018-01-06T13:37:09.622Z,5.1
2018-01-06T13:38:12.418Z,5.4
2018-01-06T13:39:14.913Z,5.1
2018-01-06T13:40:17.698Z,5
2018-01-06T13:41:20.197Z,5.1
2018-01-06T13:42:22.691Z,5
2018-01-06T13:43:25.480Z,5.1
2018-01-06T13:44:27.968Z,5.1
2018-01-06T13:45:30.476Z,5.1
2018-01-06T13:46:32.967Z,5
2018-01-06T13:47:35.456Z,5.1
2018-01-06T13:48:38.113Z,5.1
2018-01-06T13:49:41.193Z,5.1
2018-01-06T13:50:43.694Z,5.1
2018-01-06T13:51:46.201Z,5
2018-01-06T13:52:48.677Z,5.1
2018-01-06T13:53:51.187Z,5.1
2018-01-06T13:54:53.692Z,5.1
2018-01-06T13:55:56.182Z,5.2
2018-01-06T13:56:58.966Z,5.1
2018-01-06T13:58:01.490Z,5.1
2018-01-06T13:59:04.003Z,5.1
2018-01-06T14:00:06.723Z,5.2
2018-01-06T14:01:09.255Z,5
2018-01-06T14:02:11.759Z,5.1
2018-01-06T14:03:14.300Z,5.1
2018-01-06T14:04:16.794Z,5.1
2018-01-06T14:05:19.879Z,5.1
2018-01-06T14:06:22.380Z,5.2
2018-01-06T14:07:24.866Z,5.1
2018-01-06T14:08:27.951Z,5.1
2018-01-06T14:09:30.492Z,5.1
2018-01-06T14:10:32.982Z,5.2
2018-01-06T14:11:35.477Z,5.3
2018-01-06T14:12:37.982Z,5.1
2018-01-06T14:13:41.072Z,5
2018-01-06T14:14:43.571Z,5.1
2018-01-06T14:15:46.219Z,5.1
2018-01-06T14:16:48.814Z,5.1
2018-01-06T14:17:51.325Z,5.1
2018-01-06T14:18:53.973Z,5.1
2018-01-06T14:19:56.478Z,5.1
2018-01-06T14:20:58.983Z,5.2
2018-01-06T14:22:02.059Z,5.4
2018-01-06T14:23:04.561Z,5.3
2018-01-06T14:24:07.679Z,5.2
2018-01-06T14:25:10.157Z,5.1
2018-01-06T14:26:12.664Z,5.1
2018-01-06T14:27:15.157Z,5.1
2018-01-06T14:28:17.646Z,5.1
2018-01-06T14:29:20.148Z,5.1
2018-01-06T14:30:22.643Z,5
2018-01-06T14:31:25.142Z,5.1
2018-01-06T14:32:27.649Z,5.1
2018-01-06T14:33:30.131Z,5.1
2018-01-06T14:34:32.629Z,5.1
2018-01-06T14:35:35.144Z,5.2
2018-01-06T14:36:37.632Z,5.2